createdAt,value
2022-12-25T00:00:57.236Z,100969.28
2022-12-25T00:03:24.243Z,100972.91
2022-12-25T00:05:51.172Z,100958.19
2022-12-25T00:08:18.121Z,100959.06
2022-12-25T00:10:45.662Z,100958.13
2022-12-25T00:13:12.714Z,100969.72
2022-12-25T00:15:41.588Z,100979.53
2022-12-25T00:18:08.614Z,100977.78
2022-12-25T00:20:35.882Z,100966.13
2022-12-25T00:23:02.816Z,100982.06
2022-12-25T00:25:29.653Z,100988.12
2022-12-25T00:27:56.430Z,100986.37
2022-12-25T00:30:23.296Z,100978.19
2022-12-25T00:32:50.360Z,100983.44
2022-12-25T00:35:17.243Z,100986.94
2022-12-25T00:37:44.106Z,100975.75
2022-12-25T00:40:11.206Z,100999.31
2022-12-25T00:42:38.074Z,100996.66
2022-12-25T00:45:05.913Z,100996.66
2022-12-25T00:47:33.322Z,101002.03
2022-12-25T00:50:00.220Z,101003.03
2022-12-25T00:52:27.174Z,101010.47
2022-12-25T00:54:54.072Z,101006.03
2022-12-25T00:57:20.968Z,101008.16
2022-12-25T00:59:47.892Z,101017.38
2022-12-25T01:02:23.913Z,101026.03
2022-12-25T01:04:52.901Z,101021.38
2022-12-25T01:07:20.511Z,101020.59
2022-12-25T01:10:07.529Z,101016.22
2022-12-25T01:12:37.442Z,101020.69
2022-12-25T01:15:06.327Z,101022.41
2022-12-25T01:17:33.697Z,101028.56
2022-12-25T01:20:00.828Z,101033.87
2022-12-25T01:22:27.794Z,101026.97
2022-12-25T01:24:54.686Z,101037.50
2022-12-25T01:27:21.604Z,101043.66
2022-12-25T01:29:48.453Z,101054.22
2022-12-25T01:32:15.296Z,101047.19
2022-12-25T01:34:42.113Z,101049.88
2022-12-25T01:37:09.016Z,101046.34
2022-12-25T01:39:36.169Z,101054.22
2022-12-25T01:42:03.237Z,101055.78
2022-12-25T01:44:36.152Z,101054.88
2022-12-25T01:47:03.931Z,101046.09
2022-12-25T01:49:32.501Z,101047.72
2022-12-25T01:52:04.404Z,101041.53
2022-12-25T01:54:34.593Z,101053.97
2022-12-25T01:57:03.605Z,101060.06
2022-12-25T01:59:31.208Z,101056.44
2022-12-25T02:02:00.131Z,101042.41
2022-12-25T02:04:39.179Z,101050.16
2022-12-25T02:07:08.948Z,101042.41
2022-12-25T02:09:37.300Z,101054.78
2022-12-25T02:12:05.477Z,101053.16
2022-12-25T02:14:35.489Z,101049.56
2022-12-25T02:17:09.802Z,101041.94
2022-12-25T02:19:49.043Z,101053.25
2022-12-25T02:22:34.585Z,101057.63
2022-12-25T02:25:01.436Z,101061.91
2022-12-25T02:27:33.898Z,101061.03
2022-12-25T02:30:05.295Z,101066.34
2022-12-25T02:32:51.068Z,101065.41
2022-12-25T02:35:23.925Z,101066.22
2022-12-25T02:37:56.332Z,101078.81
2022-12-25T02:40:26.562Z,101079.00
2022-12-25T02:43:14.540Z,101080.09
2022-12-25T02:46:07.114Z,101080.19
2022-12-25T02:48:57.679Z,101074.88
2022-12-25T02:51:45.730Z,101076.22
2022-12-25T02:54:33.999Z,101083.44
2022-12-25T02:57:22.492Z,101079.00
2022-12-25T03:00:09.799Z,101082.38
2022-12-25T03:02:56.013Z,101086.72
2022-12-25T03:05:43.423Z,101090.69
2022-12-25T03:08:14.774Z,101098.50
2022-12-25T03:11:05.354Z,101092.50
2022-12-25T03:13:37.075Z,101092.22
2022-12-25T03:16:22.776Z,101077.41
2022-12-25T03:18:49.898Z,101092.50
2022-12-25T03:21:35.566Z,101089.84
2022-12-25T03:24:21.509Z,101103.25
2022-12-25T03:26:58.010Z,101112.19
2022-12-25T03:29:45.842Z,101099.19
2022-12-25T03:32:18.734Z,101113.44
2022-12-25T03:35:17.419Z,101117.25
2022-12-25T03:38:20.640Z,101127.91
2022-12-25T03:41:13.339Z,101124.63
2022-12-25T03:44:12.994Z,101129.25
2022-12-25T03:47:05.043Z,101116.81
2022-12-25T03:49:59.458Z,101098.19
2022-12-25T03:52:46.832Z,101115.25
2022-12-25T03:55:33.672Z,101125.31
2022-12-25T03:58:19.149Z,101121.03
2022-12-25T04:01:04.783Z,101124.75
2022-12-25T04:03:50.194Z,101116.00
2022-12-25T04:06:35.662Z,101099.00
2022-12-25T04:09:20.892Z,101122.47
2022-12-25T04:12:06.467Z,101118.34
2022-12-25T04:14:52.246Z,101113.38
2022-12-25T04:17:37.427Z,101114.94
2022-12-25T04:20:23.516Z,101119.47
2022-12-25T04:23:08.954Z,101118.69
2022-12-25T04:25:54.342Z,101121.28
2022-12-25T04:28:39.700Z,101121.34
2022-12-25T04:31:25.109Z,101127.84
2022-12-25T04:34:10.961Z,101129.75
2022-12-25T04:36:37.772Z,101145.94
2022-12-25T04:39:04.611Z,101149.75
2022-12-25T04:41:31.495Z,101141.94
2022-12-25T04:43:58.309Z,101146.41
2022-12-25T04:46:25.114Z,101151.09
2022-12-25T04:48:52.073Z,101155.47
2022-12-25T04:51:21.408Z,101156.47
2022-12-25T04:53:49.224Z,101154.06
2022-12-25T04:56:16.934Z,101158.66
2022-12-25T04:58:44.327Z,101161.44
2022-12-25T05:01:11.470Z,101156.19
2022-12-25T05:03:38.710Z,101155.34
2022-12-25T05:06:06.303Z,101152.84
2022-12-25T05:08:34.715Z,101150.06
2022-12-25T05:11:09.021Z,101154.56
2022-12-25T05:13:36.211Z,101153.88
2022-12-25T05:16:12.272Z,101156.59
2022-12-25T05:18:39.463Z,101169.13
2022-12-25T05:21:07.897Z,101163.09
2022-12-25T05:23:34.966Z,101169.19
2022-12-25T05:26:08.255Z,101172.69
2022-12-25T05:28:35.650Z,101179.78
2022-12-25T05:31:02.887Z,101177.22
2022-12-25T05:33:29.912Z,101172.87
2022-12-25T05:35:56.799Z,101172.09
2022-12-25T05:38:23.664Z,101161.91
2022-12-25T05:40:51.905Z,101169.78
2022-12-25T05:43:19.652Z,101176.88
2022-12-25T05:45:46.560Z,101184.66
2022-12-25T05:48:13.595Z,101176.53
2022-12-25T05:50:40.514Z,101182.97
2022-12-25T05:53:12.397Z,101191.62
2022-12-25T05:55:41.267Z,101203.06
2022-12-25T05:58:08.839Z,101209.28
2022-12-25T06:00:36.267Z,101205.78
2022-12-25T06:03:03.841Z,101200.66
2022-12-25T06:05:31.358Z,101198.88
2022-12-25T06:07:58.834Z,101205.16
2022-12-25T06:10:25.897Z,101210.50
2022-12-25T06:12:52.873Z,101204.34
2022-12-25T06:15:19.788Z,101208.72
2022-12-25T06:17:46.966Z,101213.09
2022-12-25T06:20:14.062Z,101212.13
2022-12-25T06:22:40.932Z,101212.13
2022-12-25T06:25:08.596Z,101206.87
2022-12-25T06:27:35.499Z,101204.19
2022-12-25T06:30:02.878Z,101207.03
2022-12-25T06:32:30.245Z,101208.75
2022-12-25T06:34:57.056Z,101210.72
2022-12-25T06:37:23.859Z,101212.56
2022-12-25T06:39:50.741Z,101201.06
2022-12-25T06:42:17.582Z,101215.31
2022-12-25T06:44:44.788Z,101210.84
2022-12-25T06:47:11.708Z,101226.69
2022-12-25T06:49:38.879Z,101218.78
2022-12-25T06:52:05.666Z,101218.03
2022-12-25T06:54:32.518Z,101236.53
2022-12-25T06:56:59.407Z,101232.16
2022-12-25T06:59:26.417Z,101239.19
2022-12-25T07:01:55.435Z,101241.81
2022-12-25T07:04:28.324Z,101242.69
2022-12-25T07:06:55.126Z,101246.16
2022-12-25T07:09:22.068Z,101253.16
2022-12-25T07:11:48.973Z,101263.59
2022-12-25T07:14:24.266Z,101263.22
2022-12-25T07:16:51.891Z,101262.12
2022-12-25T07:19:19.402Z,101270.06
2022-12-25T07:21:47.265Z,101278.94
2022-12-25T07:24:19.703Z,101279.00
2022-12-25T07:26:46.543Z,101278.25
2022-12-25T07:29:14.199Z,101278.47
2022-12-25T07:31:41.548Z,101278.84
2022-12-25T07:34:11.138Z,101289.59
2022-12-25T07:36:38.006Z,101261.09
2022-12-25T07:39:07.123Z,101290.34
2022-12-25T07:41:34.071Z,101296.50
2022-12-25T07:44:01.153Z,101270.34
2022-12-25T07:46:28.405Z,101300.12
2022-12-25T07:48:55.734Z,101300.84
2022-12-25T07:51:22.600Z,101306.19
2022-12-25T07:53:49.538Z,101305.13
2022-12-25T07:56:18.273Z,101305.97
2022-12-25T07:58:45.891Z,101304.25
2022-12-25T08:01:14.687Z,101299.94
2022-12-25T08:03:41.858Z,101290.31
2022-12-25T08:06:10.549Z,101312.09
2022-12-25T08:08:38.566Z,101317.25
2022-12-25T08:11:07.680Z,101314.44
2022-12-25T08:13:34.968Z,101317.59
2022-12-25T08:16:04.696Z,101316.59
2022-12-25T08:18:32.278Z,101326.06
2022-12-25T08:21:06.784Z,101324.03
2022-12-25T08:23:38.611Z,101325.53
2022-12-25T08:26:08.868Z,101337.63
2022-12-25T08:28:37.361Z,101335.59
2022-12-25T08:31:15.632Z,101338.87
2022-12-25T08:33:42.789Z,101336.00
2022-12-25T08:36:10.842Z,101334.06
2022-12-25T08:38:38.382Z,101335.63
2022-12-25T08:41:05.615Z,101339.81
2022-12-25T08:43:33.040Z,101344.12
2022-12-25T08:46:01.908Z,101348.41
2022-12-25T08:48:28.958Z,101346.44
2022-12-25T08:50:55.990Z,101345.37
2022-12-25T08:53:23.028Z,101342.56
2022-12-25T08:55:57.235Z,101348.56
2022-12-25T08:58:24.324Z,101352.75
2022-12-25T09:00:51.299Z,101349.06
2022-12-25T09:03:18.286Z,101356.09
2022-12-25T09:05:45.184Z,101348.78
2022-12-25T09:08:12.037Z,101354.88
2022-12-25T09:10:38.994Z,101353.91
2022-12-25T09:13:06.052Z,101356.41
2022-12-25T09:15:32.949Z,101359.84
2022-12-25T09:17:59.974Z,101350.62
2022-12-25T09:20:26.912Z,101347.69
2022-12-25T09:22:53.824Z,101355.16
2022-12-25T09:25:20.865Z,101358.28
2022-12-25T09:27:47.777Z,101356.50
2022-12-25T09:30:14.816Z,101349.03
2022-12-25T09:32:41.803Z,101351.09
2022-12-25T09:35:09.189Z,101344.25
2022-12-25T09:37:36.259Z,101344.56
2022-12-25T09:40:04.337Z,101342.47
2022-12-25T09:42:32.156Z,101335.13
2022-12-25T09:45:39.574Z,101334.22
2022-12-25T09:48:06.914Z,101340.91
2022-12-25T09:50:44.797Z,101320.88
2022-12-25T09:53:26.210Z,101335.34
2022-12-25T09:56:04.660Z,101333.22
2022-12-25T09:58:33.293Z,101324.31
2022-12-25T10:01:22.477Z,101324.03
2022-12-25T10:04:05.212Z,101317.03
2022-12-25T10:06:47.501Z,101320.06
2022-12-25T10:09:30.184Z,101306.38
2022-12-25T10:12:27.473Z,101302.31
2022-12-25T10:15:19.101Z,101314.28
2022-12-25T10:17:52.434Z,101313.38
2022-12-25T10:20:26.615Z,101320.22
2022-12-25T10:22:57.841Z,101306.16
2022-12-25T10:25:26.039Z,101304.87
2022-12-25T10:27:57.443Z,101293.69
2022-12-25T10:30:26.333Z,101291.59
2022-12-25T10:32:53.596Z,101279.53
2022-12-25T10:35:22.479Z,101296.88
2022-12-25T10:37:56.400Z,101294.00
2022-12-25T10:40:23.155Z,101277.91
2022-12-25T10:42:54.960Z,101276.84
2022-12-25T10:45:21.807Z,101282.25
2022-12-25T10:47:54.387Z,101271.69
2022-12-25T10:50:28.471Z,101284.28
2022-12-25T10:53:05.967Z,101290.44
2022-12-25T10:55:33.144Z,101295.34
2022-12-25T10:58:02.034Z,101280.97
2022-12-25T11:00:31.290Z,101263.22
2022-12-25T11:02:58.862Z,101263.87
2022-12-25T11:05:31.262Z,101272.84
2022-12-25T11:08:00.337Z,101263.94
2022-12-25T11:10:39.001Z,101266.47
2022-12-25T11:13:07.658Z,101256.91
2022-12-25T11:15:34.387Z,101269.09
2022-12-25T11:18:01.491Z,101260.41
2022-12-25T11:20:28.372Z,101240.44
2022-12-25T11:22:55.229Z,101242.56
2022-12-25T11:25:25.628Z,101253.63
2022-12-25T11:28:00.877Z,101244.69
2022-12-25T11:30:32.783Z,101239.94
2022-12-25T11:33:03.685Z,101254.97
2022-12-25T11:35:43.398Z,101253.78
2022-12-25T11:38:10.215Z,101242.94
2022-12-25T11:40:42.743Z,101249.28
2022-12-25T11:43:12.918Z,101246.44
2022-12-25T11:45:46.247Z,101243.75
2022-12-25T11:48:17.175Z,101243.59
2022-12-25T11:50:50.184Z,101245.41
2022-12-25T11:53:20.630Z,101242.56
2022-12-25T11:55:54.819Z,101233.72
2022-12-25T11:58:37.473Z,101235.22
2022-12-25T12:01:28.019Z,101228.91
2022-12-25T12:03:55.276Z,101230.72
2022-12-25T12:06:30.477Z,101234.38
2022-12-25T12:09:21.247Z,101235.06
2022-12-25T12:11:57.634Z,101229.69
2022-12-25T12:14:43.220Z,101229.63
2022-12-25T12:17:19.323Z,101227.25
2022-12-25T12:19:46.233Z,101231.84
2022-12-25T12:22:22.837Z,101243.19
2022-12-25T12:25:01.442Z,101233.25
2022-12-25T12:27:39.491Z,101228.84
2022-12-25T12:30:22.176Z,101240.13
2022-12-25T12:32:51.886Z,101232.06
2022-12-25T12:35:26.393Z,101218.66
2022-12-25T12:38:02.672Z,101226.78
2022-12-25T12:40:36.497Z,101217.09
2022-12-25T12:43:03.609Z,101219.59
2022-12-25T12:45:33.146Z,101224.97
2022-12-25T12:48:00.184Z,101232.88
2022-12-25T12:50:29.237Z,101235.53
2022-12-25T12:52:56.213Z,101223.94
2022-12-25T12:55:31.641Z,101234.53
2022-12-25T12:58:04.193Z,101226.31
2022-12-25T13:00:49.577Z,101242.00
2022-12-25T13:03:46.805Z,101230.69
2022-12-25T13:06:32.644Z,101226.50
2022-12-25T13:09:23.955Z,101231.53
2022-12-25T13:11:51.104Z,101223.25
2022-12-25T13:14:22.566Z,101232.38
2022-12-25T13:16:52.349Z,101230.03
2022-12-25T13:19:22.299Z,101223.19
2022-12-25T13:21:56.562Z,101229.75
2022-12-25T13:24:26.147Z,101243.66
2022-12-25T13:26:53.359Z,101239.72
2022-12-25T13:29:36.753Z,101248.00
2022-12-25T13:32:06.535Z,101248.41
2022-12-25T13:34:38.015Z,101260.25
2022-12-25T13:37:25.764Z,101248.81
2022-12-25T13:39:55.796Z,101242.72
2022-12-25T13:42:26.365Z,101266.12
2022-12-25T13:45:02.217Z,101260.31
2022-12-25T13:47:31.826Z,101254.22
2022-12-25T13:50:02.395Z,101257.84
2022-12-25T13:52:38.228Z,101257.78
2022-12-25T13:55:12.012Z,101251.53
2022-12-25T13:57:45.621Z,101254.37
2022-12-25T14:00:25.739Z,101257.22
2022-12-25T14:02:53.749Z,101251.28
2022-12-25T14:05:22.464Z,101246.87
2022-12-25T14:07:53.731Z,101255.00
2022-12-25T14:10:25.708Z,101241.53
2022-12-25T14:12:54.374Z,101240.66
2022-12-25T14:15:23.140Z,101234.66
2022-12-25T14:17:51.036Z,101256.75
2022-12-25T14:20:37.331Z,101255.94
2022-12-25T14:23:05.171Z,101250.09
2022-12-25T14:25:41.418Z,101264.28
2022-12-25T14:28:18.009Z,101275.97
2022-12-25T14:30:45.364Z,101278.88
2022-12-25T14:33:22.741Z,101278.78
2022-12-25T14:35:50.255Z,101285.25
2022-12-25T14:38:29.294Z,101285.50
2022-12-25T14:41:00.622Z,101291.03
2022-12-25T14:43:28.707Z,101287.63
2022-12-25T14:45:57.825Z,101289.78
2022-12-25T14:48:30.276Z,101306.88
2022-12-25T14:51:17.776Z,101306.06
2022-12-25T14:53:53.672Z,101297.41
2022-12-25T14:56:21.817Z,101302.97
2022-12-25T14:58:55.378Z,101306.75
2022-12-25T15:01:35.126Z,101302.44
2022-12-25T15:04:12.207Z,101298.84
2022-12-25T15:06:41.351Z,101300.78
2022-12-25T15:09:16.569Z,101299.19
2022-12-25T15:11:43.532Z,101300.44
2022-12-25T15:14:10.390Z,101296.94
2022-12-25T15:16:42.107Z,101299.81
2022-12-25T15:19:34.809Z,101304.47
2022-12-25T15:22:04.097Z,101305.59
2022-12-25T15:24:31.780Z,101298.72
2022-12-25T15:27:00.349Z,101295.91
2022-12-25T15:30:07.411Z,101298.44
2022-12-25T15:32:20.442Z,101297.66
2022-12-25T15:34:49.741Z,101300.53
2022-12-25T15:37:17.849Z,101314.91
2022-12-25T15:39:45.787Z,101314.19
2022-12-25T15:42:21.754Z,101305.63
2022-12-25T15:44:48.571Z,101311.69
2022-12-25T15:47:17.182Z,101322.53
2022-12-25T15:49:44.141Z,101315.56
2022-12-25T15:52:14.065Z,101318.37
2022-12-25T15:54:41.128Z,101314.75
2022-12-25T15:57:18.121Z,101310.34
2022-12-25T15:59:45.359Z,101312.88
2022-12-25T16:02:17.676Z,101317.41
2022-12-25T16:04:44.873Z,101315.59
2022-12-25T16:07:23.521Z,101297.06
2022-12-25T16:09:50.741Z,101304.16
2022-12-25T16:12:18.509Z,101298.88
2022-12-25T16:14:45.310Z,101308.78
2022-12-25T16:17:14.872Z,101308.16
2022-12-25T16:19:44.608Z,101309.06
2022-12-25T16:22:13.888Z,101312.66
2022-12-25T16:24:40.764Z,101311.84
2022-12-25T16:27:07.662Z,101315.56
2022-12-25T16:29:34.627Z,101315.59
2022-12-25T16:32:01.529Z,101322.28
2022-12-25T16:34:28.636Z,101323.34
2022-12-25T16:36:56.386Z,101312.22
2022-12-25T16:39:23.372Z,101310.50
2022-12-25T16:41:52.765Z,101293.84
2022-12-25T16:44:19.679Z,101294.16
2022-12-25T16:46:46.610Z,101297.22
2022-12-25T16:49:13.933Z,101301.13
2022-12-25T16:51:40.982Z,101296.78
2022-12-25T16:54:08.715Z,101299.53
2022-12-25T16:56:36.759Z,101296.03
2022-12-25T16:59:03.864Z,101294.31
2022-12-25T17:01:31.321Z,101301.66
2022-12-25T17:04:01.545Z,101302.72
2022-12-25T17:06:28.698Z,101298.31
2022-12-25T17:08:57.840Z,101306.38
2022-12-25T17:11:29.590Z,101298.44
2022-12-25T17:13:57.381Z,101302.28
2022-12-25T17:16:26.522Z,101289.28
2022-12-25T17:18:58.546Z,101289.97
2022-12-25T17:21:26.519Z,101296.34
2022-12-25T17:23:59.684Z,101301.03
2022-12-25T17:26:29.126Z,101304.63
2022-12-25T17:28:56.407Z,101301.94
2022-12-25T17:31:23.454Z,101284.34
2022-12-25T17:33:50.296Z,101286.84
2022-12-25T17:36:19.357Z,101279.66
2022-12-25T17:38:47.601Z,101275.09
2022-12-25T17:41:16.434Z,101261.75
2022-12-25T17:43:45.635Z,101268.09
2022-12-25T17:46:17.965Z,101269.03
2022-12-25T17:48:45.570Z,101261.13
2022-12-25T17:51:14.645Z,101275.47
2022-12-25T17:53:43.483Z,101266.56
2022-12-25T17:56:11.038Z,101271.94
2022-12-25T17:58:38.592Z,101273.78
2022-12-25T18:01:11.073Z,101263.22
2022-12-25T18:03:38.380Z,101265.16
2022-12-25T18:06:12.142Z,101273.28
2022-12-25T18:08:40.168Z,101271.47
2022-12-25T18:11:09.795Z,101273.50
2022-12-25T18:13:37.456Z,101279.84
2022-12-25T18:16:06.280Z,101286.28
2022-12-25T18:18:33.836Z,101287.16
2022-12-25T18:21:01.866Z,101290.78
2022-12-25T18:23:28.817Z,101301.56
2022-12-25T18:25:55.790Z,101293.94
2022-12-25T18:28:22.691Z,101288.81
2022-12-25T18:30:49.735Z,101289.03
2022-12-25T18:33:17.166Z,101287.50
2022-12-25T18:35:47.133Z,101276.81
2022-12-25T18:38:14.601Z,101274.28
2022-12-25T18:40:46.498Z,101289.31
2022-12-25T18:43:14.459Z,101282.13
2022-12-25T18:45:42.635Z,101274.22
2022-12-25T18:48:10.682Z,101269.81
2022-12-25T18:50:39.397Z,101272.31
2022-12-25T18:53:07.100Z,101274.13
2022-12-25T18:55:33.984Z,101268.66
2022-12-25T18:58:02.377Z,101254.47
2022-12-25T19:00:29.323Z,101260.87
2022-12-25T19:02:58.620Z,101263.47
2022-12-25T19:05:27.610Z,101261.78
2022-12-25T19:07:58.559Z,101265.34
2022-12-25T19:10:25.511Z,101249.38
2022-12-25T19:12:52.868Z,101247.69
2022-12-25T19:15:19.715Z,101235.69
2022-12-25T19:17:46.675Z,101240.87
2022-12-25T19:20:13.568Z,101243.91
2022-12-25T19:22:40.492Z,101251.75
2022-12-25T19:25:08.016Z,101256.53
2022-12-25T19:27:35.210Z,101252.19
2022-12-25T19:30:02.307Z,101248.66
2022-12-25T19:32:30.998Z,101252.50
2022-12-25T19:34:57.841Z,101259.63
2022-12-25T19:37:24.781Z,101264.75
2022-12-25T19:39:51.739Z,101256.00
2022-12-25T19:42:18.996Z,101270.97
2022-12-25T19:44:46.147Z,101260.37
2022-12-25T19:47:13.016Z,101245.19
2022-12-25T19:49:40.846Z,101245.19
2022-12-25T19:52:07.836Z,101237.19
2022-12-25T19:54:34.631Z,101240.75
2022-12-25T19:57:01.579Z,101245.31
2022-12-25T19:59:28.466Z,101223.25
2022-12-25T20:01:55.615Z,101230.22
2022-12-25T20:04:22.585Z,101218.75
2022-12-25T20:06:49.511Z,101217.81
2022-12-25T20:09:21.239Z,101205.50
2022-12-25T20:11:48.631Z,101198.44
2022-12-25T20:14:16.398Z,101199.41
2022-12-25T20:16:44.278Z,101197.69
2022-12-25T20:19:14.888Z,101196.81
2022-12-25T20:21:41.976Z,101200.38
2022-12-25T20:24:10.945Z,101220.06
2022-12-25T20:26:38.679Z,101215.41
2022-12-25T20:29:06.658Z,101223.50
2022-12-25T20:31:35.033Z,101214.53
2022-12-25T20:34:10.267Z,101219.06
2022-12-25T20:36:38.246Z,101218.03
2022-12-25T20:39:08.584Z,101214.31
2022-12-25T20:41:35.926Z,101215.19
2022-12-25T20:44:04.334Z,101219.00
2022-12-25T20:46:31.393Z,101224.13
2022-12-25T20:49:01.092Z,101225.81
2022-12-25T20:51:28.053Z,101209.81
2022-12-25T20:53:57.882Z,101204.50
2022-12-25T20:56:26.170Z,101210.69
2022-12-25T20:58:55.013Z,101214.19
2022-12-25T21:01:22.282Z,101227.53
2022-12-25T21:03:49.390Z,101223.16
2022-12-25T21:06:16.321Z,101221.41
2022-12-25T21:08:43.295Z,101216.09
2022-12-25T21:11:11.169Z,101216.09
2022-12-25T21:13:40.600Z,101219.53
2022-12-25T21:16:14.092Z,101219.50
2022-12-25T21:18:41.325Z,101210.63
2022-12-25T21:21:08.779Z,101197.41
2022-12-25T21:23:36.829Z,101207.16
2022-12-25T21:26:31.854Z,101210.63
2022-12-25T21:29:00.575Z,101215.06
2022-12-25T21:31:28.372Z,101217.69
2022-12-25T21:33:57.452Z,101215.06
2022-12-25T21:36:30.056Z,101218.75
2022-12-25T21:38:57.038Z,101221.41
2022-12-25T21:41:24.501Z,101223.91
2022-12-25T21:43:51.864Z,101226.53
2022-12-25T21:46:19.556Z,101219.44
2022-12-25T21:48:46.686Z,101223.03
2022-12-25T21:51:39.835Z,101219.53
2022-12-25T21:54:07.417Z,101216.87
2022-12-25T21:56:43.024Z,101208.00
2022-12-25T21:59:16.906Z,101214.31
2022-12-25T22:01:43.932Z,101223.16
2022-12-25T22:04:12.839Z,101219.53
2022-12-25T22:06:58.593Z,101217.84
2022-12-25T22:09:25.737Z,101211.88
2022-12-25T22:12:11.458Z,101220.84
2022-12-25T22:14:54.326Z,101208.34
2022-12-25T22:17:45.817Z,101205.72
2022-12-25T22:20:18.400Z,101217.31
2022-12-25T22:22:45.347Z,101211.22
2022-12-25T22:25:12.854Z,101208.69
2022-12-25T22:27:40.886Z,101208.81
2022-12-25T22:30:16.427Z,101211.56
2022-12-25T22:32:43.328Z,101208.94
2022-12-25T22:35:12.482Z,101208.06
2022-12-25T22:37:40.744Z,101220.56
2022-12-25T22:40:09.938Z,101212.66
2022-12-25T22:42:36.881Z,101216.19
2022-12-25T22:45:05.448Z,101216.22
2022-12-25T22:47:32.704Z,101225.03
2022-12-25T22:49:59.539Z,101218.88
2022-12-25T22:52:26.546Z,101223.34
2022-12-25T22:54:53.457Z,101218.88
2022-12-25T22:57:20.296Z,101214.38
2022-12-25T22:59:47.171Z,101219.87
2022-12-25T23:02:14.257Z,101205.63
2022-12-25T23:04:41.369Z,101199.44
2022-12-25T23:07:08.795Z,101194.09
2022-12-25T23:09:35.706Z,101195.94
2022-12-25T23:12:02.576Z,101197.78
2022-12-25T23:14:43.990Z,101213.78
2022-12-25T23:17:32.024Z,101212.00
2022-12-25T23:20:18.833Z,101207.69
2022-12-25T23:23:04.749Z,101201.53
2022-12-25T23:25:50.412Z,101199.69
2022-12-25T23:28:40.062Z,101198.94
2022-12-25T23:31:07.661Z,101198.94
2022-12-25T23:33:34.544Z,101186.56
2022-12-25T23:36:01.392Z,101178.03
2022-12-25T23:38:28.185Z,101194.66
2022-12-25T23:40:55.035Z,101200.03
2022-12-25T23:43:22.139Z,101193.06
2022-12-25T23:45:48.986Z,101191.41
2022-12-25T23:48:15.912Z,101186.91
2022-12-25T23:50:42.762Z,101183.38
2022-12-25T23:53:10.914Z,101187.84
2022-12-25T23:55:38.003Z,101179.06
2022-12-25T23:58:05.186Z,101177.34
